sensor_id;sensor_type;location;lat;lon;timestamp;P1;durP1;ratioP1;P2;durP2;ratioP2
6414;SDS011;3240;48.790;9.210;2023-03-01T00:01:06;31.80;;;13.10;;
6414;SDS011;3240;48.790;9.210;2023-03-01T00:03:33;23.87;;;13.10;;
6414;SDS011;3240;48.790;9.210;2023-03-01T00:06:01;26.37;;;13.90;;
6414;SDS011;3240;48.790;9.210;2023-03-01T00:08:29;24.87;;;13.47;;
6414;SDS011;3240;48.790;9.210;2023-03-01T00:11:01;26.87;;;14.43;;
6414;SDS011;3240;48.790;9.210;2023-03-01T00:13:28;24.10;;;13.90;;
6414;SDS011;3240;48.790;9.210;2023-03-01T00:15:56;27.20;;;12.73;;
6414;SDS011;3240;48.790;9.210;2023-03-01T00:18:24;24.33;;;13.37;;
6414;SDS011;3240;48.790;9.210;2023-03-01T00:20:52;24.37;;;13.77;;
6414;SDS011;3240;48.790;9.210;2023-03-01T00:23:20;22.13;;;12.37;;
6414;SDS011;3240;48.790;9.210;2023-03-01T00:25:48;21.90;;;12.97;;
6414;SDS011;3240;48.790;9.210;2023-03-01T00:28:16;22.80;;;13.00;;
6414;SDS011;3240;48.790;9.210;2023-03-01T00:30:44;24.07;;;13.53;;
6414;SDS011;3240;48.790;9.210;2023-03-01T00:33:12;25.87;;;13.30;;
6414;SDS011;3240;48.790;9.210;2023-03-01T00:35:40;25.47;;;13.10;;
6414;SDS011;3240;48.790;9.210;2023-03-01T00:38:08;27.67;;;12.83;;
6414;SDS011;3240;48.790;9.210;2023-03-01T00:40:36;25.13;;;12.87;;
6414;SDS011;3240;48.790;9.210;2023-03-01T00:43:04;30.70;;;13.63;;
6414;SDS011;3240;48.790;9.210;2023-03-01T00:45:32;23.20;;;12.50;;
6414;SDS011;3240;48.790;9.210;2023-03-01T00:48:00;23.43;;;12.20;;
6414;SDS011;3240;48.790;9.210;2023-03-01T00:50:28;25.23;;;13.53;;
6414;SDS011;3240;48.790;9.210;2023-03-01T00:52:56;20.60;;;12.40;;
6414;SDS011;3240;48.790;9.210;2023-03-01T00:55:24;23.73;;;13.20;;
6414;SDS011;3240;48.790;9.210;2023-03-01T00:57:52;26.13;;;14.47;;
6414;SDS011;3240;48.790;9.210;2023-03-01T01:00:21;26.63;;;13.40;;
6414;SDS011;3240;48.790;9.210;2023-03-01T01:02:49;28.30;;;13.43;;
6414;SDS011;3240;48.790;9.210;2023-03-01T01:05:17;22.20;;;13.17;;
6414;SDS011;3240;48.790;9.210;2023-03-01T01:07:45;22.20;;;12.63;;
6414;SDS011;3240;48.790;9.210;2023-03-01T01:10:13;26.40;;;13.60;;
6414;SDS011;3240;48.790;9.210;2023-03-01T01:12:41;28.13;;;13.27;;
6414;SDS011;3240;48.790;9.210;2023-03-01T01:15:09;25.50;;;12.93;;
6414;SDS011;3240;48.790;9.210;2023-03-01T01:17:37;22.90;;;12.30;;
6414;SDS011;3240;48.790;9.210;2023-03-01T01:20:05;22.27;;;12.13;;
6414;SDS011;3240;48.790;9.210;2023-03-01T01:22:33;22.80;;;12.07;;
6414;SDS011;3240;48.790;9.210;2023-03-01T01:25:01;24.93;;;13.37;;
6414;SDS011;3240;48.790;9.210;2023-03-01T01:27:29;24.57;;;13.60;;
6414;SDS011;3240;48.790;9.210;2023-03-01T01:29:57;25.67;;;13.17;;
6414;SDS011;3240;48.790;9.210;2023-03-01T01:32:25;23.20;;;12.13;;
6414;SDS011;3240;48.790;9.210;2023-03-01T01:34:53;26.73;;;13.00;;
6414;SDS011;3240;48.790;9.210;2023-03-01T01:37:21;23.13;;;12.50;;
6414;SDS011;3240;48.790;9.210;2023-03-01T01:39:50;25.73;;;13.43;;
6414;SDS011;3240;48.790;9.210;2023-03-01T01:42:18;24.47;;;11.77;;
6414;SDS011;3240;48.790;9.210;2023-03-01T01:44:46;29.60;;;14.30;;
6414;SDS011;3240;48.790;9.210;2023-03-01T01:47:18;25.57;;;12.70;;
6414;SDS011;3240;48.790;9.210;2023-03-01T01:49:46;23.40;;;12.83;;
6414;SDS011;3240;48.790;9.210;2023-03-01T01:52:16;22.43;;;11.73;;
6414;SDS011;3240;48.790;9.210;2023-03-01T01:54:44;25.87;;;14.13;;
6414;SDS011;3240;48.790;9.210;2023-03-01T01:57:12;27.87;;;13.23;;
6414;SDS011;3240;48.790;9.210;2023-03-01T01:59:38;29.97;;;14.27;;
6414;SDS011;3240;48.790;9.210;2023-03-01T02:02:06;23.03;;;12.23;;
6414;SDS011;3240;48.790;9.210;2023-03-01T02:04:34;25.47;;;13.17;;
6414;SDS011;3240;48.790;9.210;2023-03-01T02:07:09;23.10;;;12.03;;
6414;SDS011;3240;48.790;9.210;2023-03-01T02:09:34;26.17;;;13.40;;
6414;SDS011;3240;48.790;9.210;2023-03-01T02:12:03;27.10;;;14.10;;
6414;SDS011;3240;48.790;9.210;2023-03-01T02:14:31;22.63;;;13.10;;
6414;SDS011;3240;48.790;9.210;2023-03-01T02:16:59;28.00;;;13.60;;
6414;SDS011;3240;48.790;9.210;2023-03-01T02:19:40;25.20;;;14.23;;
6414;SDS011;3240;48.790;9.210;2023-03-01T02:22:11;28.43;;;13.67;;
6414;SDS011;3240;48.790;9.210;2023-03-01T02:24:44;23.63;;;13.33;;
6414;SDS011;3240;48.790;9.210;2023-03-01T02:27:08;26.33;;;13.23;;
6414;SDS011;3240;48.790;9.210;2023-03-01T02:29:36;25.70;;;13.00;;
6414;SDS011;3240;48.790;9.210;2023-03-01T02:32:04;24.80;;;13.77;;
6414;SDS011;3240;48.790;9.210;2023-03-01T02:34:33;24.80;;;12.13;;
6414;SDS011;3240;48.790;9.210;2023-03-01T02:37:02;24.87;;;12.97;;
6414;SDS011;3240;48.790;9.210;2023-03-01T02:39:30;21.20;;;12.90;;
6414;SDS011;3240;48.790;9.210;2023-03-01T02:41:57;25.30;;;12.30;;
6414;SDS011;3240;48.790;9.210;2023-03-01T02:44:25;22.03;;;12.67;;
6414;SDS011;3240;48.790;9.210;2023-03-01T02:46:53;23.37;;;11.90;;
6414;SDS011;3240;48.790;9.210;2023-03-01T02:49:22;31.83;;;13.57;;
6414;SDS011;3240;48.790;9.210;2023-03-01T02:51:52;23.50;;;13.27;;
6414;SDS011;3240;48.790;9.210;2023-03-01T02:54:21;24.70;;;13.90;;
6414;SDS011;3240;48.790;9.210;2023-03-01T02:56:46;26.03;;;13.30;;
6414;SDS011;3240;48.790;9.210;2023-03-01T02:59:18;29.03;;;15.03;;
6414;SDS011;3240;48.790;9.210;2023-03-01T03:01:44;23.70;;;14.03;;
6414;SDS011;3240;48.790;9.210;2023-03-01T03:04:14;25.13;;;13.47;;
6414;SDS011;3240;48.790;9.210;2023-03-01T03:06:41;26.33;;;14.27;;
6414;SDS011;3240;48.790;9.210;2023-03-01T03:09:09;26.13;;;13.73;;
6414;SDS011;3240;48.790;9.210;2023-03-01T03:11:37;23.63;;;13.87;;
6414;SDS011;3240;48.790;9.210;2023-03-01T03:14:05;30.07;;;14.87;;
6414;SDS011;3240;48.790;9.210;2023-03-01T03:16:33;28.50;;;13.97;;
6414;SDS011;3240;48.790;9.210;2023-03-01T03:19:01;23.80;;;13.30;;
6414;SDS011;3240;48.790;9.210;2023-03-01T03:21:29;24.57;;;13.60;;
6414;SDS011;3240;48.790;9.210;2023-03-01T03:23:57;26.60;;;13.40;;
6414;SDS011;3240;48.790;9.210;2023-03-01T03:26:25;25.63;;;14.07;;
6414;SDS011;3240;48.790;9.210;2023-03-01T03:28:53;24.60;;;14.27;;
6414;SDS011;3240;48.790;9.210;2023-03-01T03:31:21;26.80;;;14.07;;
6414;SDS011;3240;48.790;9.210;2023-03-01T03:33:49;24.77;;;14.00;;
6414;SDS011;3240;48.790;9.210;2023-03-01T03:36:18;30.50;;;14.13;;
6414;SDS011;3240;48.790;9.210;2023-03-01T03:38:45;27.53;;;13.67;;
6414;SDS011;3240;48.790;9.210;2023-03-01T03:41:13;33.40;;;14.23;;
6414;SDS011;3240;48.790;9.210;2023-03-01T03:43:41;25.37;;;14.03;;
6414;SDS011;3240;48.790;9.210;2023-03-01T03:46:10;29.13;;;14.60;;
6414;SDS011;3240;48.790;9.210;2023-03-01T03:48:43;29.67;;;13.87;;
6414;SDS011;3240;48.790;9.210;2023-03-01T03:51:10;24.77;;;13.83;;
6414;SDS011;3240;48.790;9.210;2023-03-01T03:53:39;29.37;;;14.70;;
6414;SDS011;3240;48.790;9.210;2023-03-01T03:56:06;27.37;;;14.63;;
6414;SDS011;3240;48.790;9.210;2023-03-01T03:58:34;26.47;;;13.80;;
6414;SDS011;3240;48.790;9.210;2023-03-01T04:01:02;27.13;;;14.00;;
6414;SDS011;3240;48.790;9.210;2023-03-01T04:03:30;28.50;;;14.37;;
6414;SDS011;3240;48.790;9.210;2023-03-01T04:05:59;27.43;;;17.40;;
6414;SDS011;3240;48.790;9.210;2023-03-01T04:08:26;29.70;;;14.00;;
6414;SDS011;3240;48.790;9.210;2023-03-01T04:10:58;25.67;;;14.93;;
6414;SDS011;3240;48.790;9.210;2023-03-01T04:13:25;26.50;;;14.40;;
6414;SDS011;3240;48.790;9.210;2023-03-01T04:15:53;27.73;;;14.67;;
6414;SDS011;3240;48.790;9.210;2023-03-01T04:18:21;27.00;;;14.53;;
6414;SDS011;3240;48.790;9.210;2023-03-01T04:20:49;25.47;;;14.37;;
6414;SDS011;3240;48.790;9.210;2023-03-01T04:23:18;31.33;;;14.83;;
6414;SDS011;3240;48.790;9.210;2023-03-01T04:25:53;26.37;;;15.00;;
6414;SDS011;3240;48.790;9.210;2023-03-01T04:28:38;26.27;;;13.43;;
6414;SDS011;3240;48.790;9.210;2023-03-01T04:31:06;31.13;;;15.23;;
6414;SDS011;3240;48.790;9.210;2023-03-01T04:33:34;27.17;;;14.90;;
6414;SDS011;3240;48.790;9.210;2023-03-01T04:36:02;29.90;;;15.77;;
6414;SDS011;3240;48.790;9.210;2023-03-01T04:38:30;29.93;;;15.20;;
6414;SDS011;3240;48.790;9.210;2023-03-01T04:40:58;25.73;;;14.70;;
6414;SDS011;3240;48.790;9.210;2023-03-01T04:43:26;32.63;;;15.60;;
6414;SDS011;3240;48.790;9.210;2023-03-01T04:45:54;29.67;;;15.40;;
6414;SDS011;3240;48.790;9.210;2023-03-01T04:48:22;29.63;;;15.47;;
6414;SDS011;3240;48.790;9.210;2023-03-01T04:50:50;28.93;;;15.37;;
6414;SDS011;3240;48.790;9.210;2023-03-01T04:53:18;29.60;;;15.53;;
6414;SDS011;3240;48.790;9.210;2023-03-01T04:55:46;29.23;;;15.63;;
6414;SDS011;3240;48.790;9.210;2023-03-01T04:58:15;27.30;;;14.80;;
6414;SDS011;3240;48.790;9.210;2023-03-01T05:00:43;25.80;;;14.63;;
6414;SDS011;3240;48.790;9.210;2023-03-01T05:03:11;28.83;;;15.60;;
6414;SDS011;3240;48.790;9.210;2023-03-01T05:05:39;30.37;;;15.00;;
6414;SDS011;3240;48.790;9.210;2023-03-01T05:08:07;29.27;;;16.20;;
6414;SDS011;3240;48.790;9.210;2023-03-01T05:10:35;28.23;;;14.33;;
6414;SDS011;3240;48.790;9.210;2023-03-01T05:13:03;27.77;;;15.23;;
6414;SDS011;3240;48.790;9.210;2023-03-01T05:15:31;30.53;;;15.23;;
6414;SDS011;3240;48.790;9.210;2023-03-01T05:17:59;28.03;;;15.43;;
6414;SDS011;3240;48.790;9.210;2023-03-01T05:20:28;34.17;;;16.33;;
6414;SDS011;3240;48.790;9.210;2023-03-01T05:22:56;28.57;;;15.40;;
6414;SDS011;3240;48.790;9.210;2023-03-01T05:25:23;30.87;;;16.70;;
6414;SDS011;3240;48.790;9.210;2023-03-01T05:27:51;33.60;;;15.33;;
6414;SDS011;3240;48.790;9.210;2023-03-01T05:30:19;28.55;;;16.02;;
6414;SDS011;3240;48.790;9.210;2023-03-01T05:32:48;28.93;;;16.00;;
6414;SDS011;3240;48.790;9.210;2023-03-01T05:35:16;30.57;;;14.90;;
6414;SDS011;3240;48.790;9.210;2023-03-01T05:37:44;27.53;;;14.47;;
6414;SDS011;3240;48.790;9.210;2023-03-01T05:40:12;29.47;;;15.10;;
6414;SDS011;3240;48.790;9.210;2023-03-01T05:42:39;27.23;;;15.30;;
6414;SDS011;3240;48.790;9.210;2023-03-01T05:45:07;27.80;;;14.47;;
6414;SDS011;3240;48.790;9.210;2023-03-01T05:47:36;28.73;;;14.13;;
6414;SDS011;3240;48.790;9.210;2023-03-01T05:50:04;35.03;;;15.47;;
6414;SDS011;3240;48.790;9.210;2023-03-01T05:52:32;30.73;;;18.48;;
6414;SDS011;3240;48.790;9.210;2023-03-01T05:55:00;26.00;;;15.20;;
6414;SDS011;3240;48.790;9.210;2023-03-01T05:57:28;26.67;;;15.40;;
6414;SDS011;3240;48.790;9.210;2023-03-01T05:59:56;29.77;;;15.77;;
6414;SDS011;3240;48.790;9.210;2023-03-01T06:02:24;30.03;;;15.00;;
6414;SDS011;3240;48.790;9.210;2023-03-01T06:04:52;30.70;;;15.40;;
6414;SDS011;3240;48.790;9.210;2023-03-01T06:07:20;30.73;;;15.67;;
6414;SDS011;3240;48.790;9.210;2023-03-01T06:09:48;35.57;;;15.73;;
6414;SDS011;3240;48.790;9.210;2023-03-01T06:12:16;28.90;;;15.07;;
6414;SDS011;3240;48.790;9.210;2023-03-01T06:14:45;33.00;;;16.10;;
6414;SDS011;3240;48.790;9.210;2023-03-01T06:17:12;31.03;;;16.17;;
6414;SDS011;3240;48.790;9.210;2023-03-01T06:19:40;30.30;;;14.37;;
6414;SDS011;3240;48.790;9.210;2023-03-01T06:22:08;31.03;;;15.87;;
6414;SDS011;3240;48.790;9.210;2023-03-01T06:24:36;31.60;;;15.30;;
6414;SDS011;3240;48.790;9.210;2023-03-01T06:27:04;29.63;;;15.00;;
6414;SDS011;3240;48.790;9.210;2023-03-01T06:29:32;28.93;;;15.23;;
6414;SDS011;3240;48.790;9.210;2023-03-01T06:32:01;36.17;;;16.07;;
6414;SDS011;3240;48.790;9.210;2023-03-01T06:34:28;27.83;;;13.97;;
6414;SDS011;3240;48.790;9.210;2023-03-01T06:36:56;28.50;;;15.40;;
6414;SDS011;3240;48.790;9.210;2023-03-01T06:39:24;26.40;;;15.03;;
6414;SDS011;3240;48.790;9.210;2023-03-01T06:41:52;27.17;;;15.00;;
6414;SDS011;3240;48.790;9.210;2023-03-01T06:44:20;28.80;;;16.37;;
6414;SDS011;3240;48.790;9.210;2023-03-01T06:46:49;30.97;;;15.90;;
6414;SDS011;3240;48.790;9.210;2023-03-01T06:49:17;30.07;;;16.20;;
6414;SDS011;3240;48.790;9.210;2023-03-01T06:51:45;33.53;;;16.70;;
6414;SDS011;3240;48.790;9.210;2023-03-01T06:54:13;30.60;;;15.13;;
6414;SDS011;3240;48.790;9.210;2023-03-01T06:56:41;31.40;;;15.33;;
6414;SDS011;3240;48.790;9.210;2023-03-01T06:59:09;30.37;;;16.53;;
6414;SDS011;3240;48.790;9.210;2023-03-01T07:01:37;30.83;;;15.80;;
6414;SDS011;3240;48.790;9.210;2023-03-01T07:04:05;28.43;;;14.80;;
6414;SDS011;3240;48.790;9.210;2023-03-01T07:06:33;25.13;;;14.67;;
6414;SDS011;3240;48.790;9.210;2023-03-01T07:09:01;33.43;;;16.20;;
6414;SDS011;3240;48.790;9.210;2023-03-01T07:11:29;26.10;;;14.77;;
6414;SDS011;3240;48.790;9.210;2023-03-01T07:13:57;27.17;;;14.77;;
6414;SDS011;3240;48.790;9.210;2023-03-01T07:16:25;27.03;;;15.30;;
6414;SDS011;3240;48.790;9.210;2023-03-01T07:18:53;29.13;;;15.80;;
6414;SDS011;3240;48.790;9.210;2023-03-01T07:21:21;38.03;;;16.20;;
6414;SDS011;3240;48.790;9.210;2023-03-01T07:23:49;33.03;;;15.70;;
6414;SDS011;3240;48.790;9.210;2023-03-01T07:26:17;35.15;;;18.70;;
6414;SDS011;3240;48.790;9.210;2023-03-01T07:28:45;29.93;;;15.60;;
6414;SDS011;3240;48.790;9.210;2023-03-01T07:31:13;29.03;;;16.60;;
6414;SDS011;3240;48.790;9.210;2023-03-01T07:33:41;30.90;;;16.03;;
6414;SDS011;3240;48.790;9.210;2023-03-01T07:36:09;35.43;;;16.17;;
6414;SDS011;3240;48.790;9.210;2023-03-01T07:38:37;29.07;;;15.27;;
6414;SDS011;3240;48.790;9.210;2023-03-01T07:41:05;30.93;;;16.50;;
6414;SDS011;3240;48.790;9.210;2023-03-01T07:43:33;42.30;;;17.87;;
6414;SDS011;3240;48.790;9.210;2023-03-01T07:46:02;39.07;;;17.30;;
6414;SDS011;3240;48.790;9.210;2023-03-01T07:48:30;32.37;;;16.83;;
6414;SDS011;3240;48.790;9.210;2023-03-01T07:50:58;35.80;;;15.83;;
6414;SDS011;3240;48.790;9.210;2023-03-01T07:53:26;31.80;;;16.57;;
6414;SDS011;3240;48.790;9.210;2023-03-01T07:58:27;32.60;;;16.33;;
6414;SDS011;3240;48.790;9.210;2023-03-01T08:00:56;33.13;;;16.23;;
6414;SDS011;3240;48.790;9.210;2023-03-01T08:03:24;32.00;;;16.03;;
6414;SDS011;3240;48.790;9.210;2023-03-01T08:05:52;33.30;;;16.83;;
6414;SDS011;3240;48.790;9.210;2023-03-01T08:08:20;29.93;;;16.33;;
6414;SDS011;3240;48.790;9.210;2023-03-01T08:10:48;32.23;;;16.50;;
6414;SDS011;3240;48.790;9.210;2023-03-01T08:13:16;29.87;;;15.00;;
6414;SDS011;3240;48.790;9.210;2023-03-01T08:15:44;31.57;;;16.70;;
6414;SDS011;3240;48.790;9.210;2023-03-01T08:18:12;32.10;;;16.63;;
6414;SDS011;3240;48.790;9.210;2023-03-01T08:20:40;28.90;;;15.80;;
6414;SDS011;3240;48.790;9.210;2023-03-01T08:23:08;33.70;;;16.43;;
6414;SDS011;3240;48.790;9.210;2023-03-01T08:25:36;31.47;;;15.60;;
6414;SDS011;3240;48.790;9.210;2023-03-01T08:28:04;32.10;;;15.97;;
6414;SDS011;3240;48.790;9.210;2023-03-01T08:30:32;35.43;;;18.07;;
6414;SDS011;3240;48.790;9.210;2023-03-01T08:33:00;30.00;;;16.63;;
6414;SDS011;3240;48.790;9.210;2023-03-01T08:35:28;31.20;;;16.90;;
6414;SDS011;3240;48.790;9.210;2023-03-01T08:37:56;33.73;;;17.00;;
6414;SDS011;3240;48.790;9.210;2023-03-01T08:40:24;33.63;;;16.27;;
6414;SDS011;3240;48.790;9.210;2023-03-01T08:42:52;45.47;;;19.43;;
6414;SDS011;3240;48.790;9.210;2023-03-01T08:45:20;32.10;;;16.30;;
6414;SDS011;3240;48.790;9.210;2023-03-01T08:47:51;29.97;;;15.70;;
6414;SDS011;3240;48.790;9.210;2023-03-01T08:50:16;29.43;;;15.90;;
6414;SDS011;3240;48.790;9.210;2023-03-01T08:52:44;32.97;;;18.07;;
6414;SDS011;3240;48.790;9.210;2023-03-01T08:55:12;33.10;;;16.83;;
6414;SDS011;3240;48.790;9.210;2023-03-01T08:57:40;30.27;;;16.93;;
6414;SDS011;3240;48.790;9.210;2023-03-01T09:00:09;33.63;;;15.83;;
6414;SDS011;3240;48.790;9.210;2023-03-01T09:02:37;32.27;;;15.60;;
6414;SDS011;3240;48.790;9.210;2023-03-01T09:05:05;33.33;;;17.27;;
6414;SDS011;3240;48.790;9.210;2023-03-01T09:07:33;29.80;;;15.97;;
6414;SDS011;3240;48.790;9.210;2023-03-01T09:10:01;30.63;;;17.23;;
6414;SDS011;3240;48.790;9.210;2023-03-01T09:12:29;33.23;;;15.97;;
6414;SDS011;3240;48.790;9.210;2023-03-01T09:14:57;32.80;;;17.80;;
6414;SDS011;3240;48.790;9.210;2023-03-01T09:17:25;35.53;;;17.87;;
6414;SDS011;3240;48.790;9.210;2023-03-01T09:19:53;29.67;;;16.67;;
6414;SDS011;3240;48.790;9.210;2023-03-01T09:22:21;31.93;;;17.03;;
6414;SDS011;3240;48.790;9.210;2023-03-01T09:24:49;30.10;;;16.40;;
6414;SDS011;3240;48.790;9.210;2023-03-01T09:27:17;34.80;;;18.33;;
6414;SDS011;3240;48.790;9.210;2023-03-01T09:29:45;27.23;;;16.80;;
6414;SDS011;3240;48.790;9.210;2023-03-01T09:32:13;30.90;;;16.77;;
6414;SDS011;3240;48.790;9.210;2023-03-01T09:34:41;31.17;;;16.97;;
6414;SDS011;3240;48.790;9.210;2023-03-01T09:37:15;31.13;;;16.90;;
6414;SDS011;3240;48.790;9.210;2023-03-01T09:39:43;33.00;;;17.27;;
6414;SDS011;3240;48.790;9.210;2023-03-01T09:42:11;29.27;;;16.10;;
6414;SDS011;3240;48.790;9.210;2023-03-01T09:44:43;33.50;;;16.00;;
6414;SDS011;3240;48.790;9.210;2023-03-01T09:47:17;31.90;;;16.33;;
6414;SDS011;3240;48.790;9.210;2023-03-01T09:49:38;35.43;;;17.60;;
6414;SDS011;3240;48.790;9.210;2023-03-01T09:52:12;39.40;;;18.30;;
6414;SDS011;3240;48.790;9.210;2023-03-01T09:54:38;27.93;;;16.63;;
6414;SDS011;3240;48.790;9.210;2023-03-01T09:57:11;28.70;;;15.13;;
6414;SDS011;3240;48.790;9.210;2023-03-01T09:59:45;32.80;;;16.83;;
6414;SDS011;3240;48.790;9.210;2023-03-01T10:02:24;31.23;;;16.03;;
6414;SDS011;3240;48.790;9.210;2023-03-01T10:04:49;26.30;;;15.43;;
6414;SDS011;3240;48.790;9.210;2023-03-01T10:07:24;25.97;;;15.10;;
6414;SDS011;3240;48.790;9.210;2023-03-01T10:09:49;28.40;;;16.77;;
6414;SDS011;3240;48.790;9.210;2023-03-01T10:12:18;27.03;;;15.83;;
6414;SDS011;3240;48.790;9.210;2023-03-01T10:14:49;32.67;;;17.33;;
6414;SDS011;3240;48.790;9.210;2023-03-01T10:19:48;27.73;;;15.60;;
6414;SDS011;3240;48.790;9.210;2023-03-01T10:22:20;26.70;;;14.80;;
6414;SDS011;3240;48.790;9.210;2023-03-01T10:24:46;26.70;;;16.07;;
6414;SDS011;3240;48.790;9.210;2023-03-01T10:27:19;30.73;;;16.87;;
6414;SDS011;3240;48.790;9.210;2023-03-01T10:29:48;28.07;;;14.90;;
6414;SDS011;3240;48.790;9.210;2023-03-01T10:32:14;28.87;;;14.57;;
6414;SDS011;3240;48.790;9.210;2023-03-01T10:34:42;33.27;;;16.40;;
6414;SDS011;3240;48.790;9.210;2023-03-01T10:37:11;30.63;;;16.50;;
6414;SDS011;3240;48.790;9.210;2023-03-01T10:39:54;28.60;;;16.07;;
6414;SDS011;3240;48.790;9.210;2023-03-01T10:42:13;31.50;;;16.03;;
6414;SDS011;3240;48.790;9.210;2023-03-01T10:44:35;29.07;;;16.03;;
6414;SDS011;3240;48.790;9.210;2023-03-01T10:47:02;28.53;;;14.70;;
6414;SDS011;3240;48.790;9.210;2023-03-01T10:49:30;23.63;;;15.13;;
6414;SDS011;3240;48.790;9.210;2023-03-01T10:51:58;33.60;;;14.63;;
6414;SDS011;3240;48.790;9.210;2023-03-01T10:54:29;26.37;;;14.80;;
6414;SDS011;3240;48.790;9.210;2023-03-01T10:56:57;23.83;;;14.70;;
6414;SDS011;3240;48.790;9.210;2023-03-01T10:59:28;26.23;;;15.73;;
6414;SDS011;3240;48.790;9.210;2023-03-01T11:02:17;27.37;;;15.60;;
6414;SDS011;3240;48.790;9.210;2023-03-01T11:05:13;27.90;;;15.33;;
6414;SDS011;3240;48.790;9.210;2023-03-01T11:07:30;29.40;;;15.80;;
6414;SDS011;3240;48.790;9.210;2023-03-01T11:09:58;24.60;;;13.90;;
6414;SDS011;3240;48.790;9.210;2023-03-01T11:12:26;28.33;;;15.40;;
6414;SDS011;3240;48.790;9.210;2023-03-01T11:14:54;29.07;;;17.27;;
6414;SDS011;3240;48.790;9.210;2023-03-01T11:17:28;28.27;;;14.93;;
6414;SDS011;3240;48.790;9.210;2023-03-01T11:20:00;35.50;;;17.37;;
6414;SDS011;3240;48.790;9.210;2023-03-01T11:22:28;31.03;;;15.77;;
6414;SDS011;3240;48.790;9.210;2023-03-01T11:24:56;25.80;;;16.20;;
6414;SDS011;3240;48.790;9.210;2023-03-01T11:27:25;31.00;;;16.80;;
6414;SDS011;3240;48.790;9.210;2023-03-01T11:29:54;27.63;;;15.20;;
6414;SDS011;3240;48.790;9.210;2023-03-01T11:32:20;27.77;;;16.30;;
6414;SDS011;3240;48.790;9.210;2023-03-01T11:34:53;27.53;;;15.60;;
6414;SDS011;3240;48.790;9.210;2023-03-01T11:37:55;27.00;;;15.67;;
6414;SDS011;3240;48.790;9.210;2023-03-01T11:40:12;28.47;;;16.27;;
6414;SDS011;3240;48.790;9.210;2023-03-01T11:42:47;28.90;;;16.00;;
6414;SDS011;3240;48.790;9.210;2023-03-01T11:45:12;26.83;;;15.20;;
6414;SDS011;3240;48.790;9.210;2023-03-01T11:47:54;29.37;;;16.70;;
6414;SDS011;3240;48.790;9.210;2023-03-01T11:50:26;30.13;;;16.27;;
6414;SDS011;3240;48.790;9.210;2023-03-01T11:52:54;28.00;;;15.23;;
6414;SDS011;3240;48.790;9.210;2023-03-01T11:58:00;25.37;;;14.80;;
6414;SDS011;3240;48.790;9.210;2023-03-01T12:00:32;23.87;;;13.93;;
6414;SDS011;3240;48.790;9.210;2023-03-01T12:02:59;26.30;;;14.17;;
6414;SDS011;3240;48.790;9.210;2023-03-01T12:08:10;32.70;;;16.13;;
6414;SDS011;3240;48.790;9.210;2023-03-01T12:10:39;28.40;;;14.73;;
6414;SDS011;3240;48.790;9.210;2023-03-01T12:16:03;23.93;;;13.77;;
6414;SDS011;3240;48.790;9.210;2023-03-01T12:18:35;27.00;;;14.80;;
6414;SDS011;3240;48.790;9.210;2023-03-01T12:21:05;25.93;;;14.77;;
6414;SDS011;3240;48.790;9.210;2023-03-01T12:23:35;25.45;;;14.20;;
6414;SDS011;3240;48.790;9.210;2023-03-01T12:26:29;26.30;;;14.87;;
6414;SDS011;3240;48.790;9.210;2023-03-01T12:31:26;24.13;;;13.93;;
6414;SDS011;3240;48.790;9.210;2023-03-01T12:33:54;27.33;;;14.70;;
6414;SDS011;3240;48.790;9.210;2023-03-01T12:41:36;22.17;;;12.63;;
6414;SDS011;3240;48.790;9.210;2023-03-01T12:44:11;26.93;;;14.30;;
6414;SDS011;3240;48.790;9.210;2023-03-01T12:47:10;24.00;;;14.17;;
6414;SDS011;3240;48.790;9.210;2023-03-01T12:49:20;26.70;;;16.00;;
6414;SDS011;3240;48.790;9.210;2023-03-01T12:51:51;22.10;;;12.77;;
6414;SDS011;3240;48.790;9.210;2023-03-01T12:54:16;22.20;;;12.77;;
6414;SDS011;3240;48.790;9.210;2023-03-01T12:56:42;20.40;;;12.67;;
6414;SDS011;3240;48.790;9.210;2023-03-01T12:59:13;19.40;;;12.43;;
6414;SDS011;3240;48.790;9.210;2023-03-01T13:01:41;25.60;;;14.40;;
6414;SDS011;3240;48.790;9.210;2023-03-01T13:04:12;20.30;;;12.63;;
6414;SDS011;3240;48.790;9.210;2023-03-01T13:06:41;26.60;;;12.57;;
6414;SDS011;3240;48.790;9.210;2023-03-01T13:09:14;18.50;;;11.77;;
6414;SDS011;3240;48.790;9.210;2023-03-01T13:11:40;20.80;;;12.90;;
6414;SDS011;3240;48.790;9.210;2023-03-01T13:16:41;19.97;;;12.30;;
6414;SDS011;3240;48.790;9.210;2023-03-01T13:19:24;17.73;;;11.60;;
6414;SDS011;3240;48.790;9.210;2023-03-01T13:21:53;28.83;;;13.20;;
6414;SDS011;3240;48.790;9.210;2023-03-01T13:24:26;18.40;;;12.10;;
6414;SDS011;3240;48.790;9.210;2023-03-01T13:27:29;20.77;;;13.57;;
6414;SDS011;3240;48.790;9.210;2023-03-01T13:29:47;22.37;;;14.70;;
6414;SDS011;3240;48.790;9.210;2023-03-01T13:32:21;26.40;;;13.37;;
6414;SDS011;3240;48.790;9.210;2023-03-01T13:34:48;20.50;;;12.50;;
6414;SDS011;3240;48.790;9.210;2023-03-01T13:37:20;24.20;;;14.60;;
6414;SDS011;3240;48.790;9.210;2023-03-01T13:39:46;24.20;;;13.90;;
6414;SDS011;3240;48.790;9.210;2023-03-01T13:44:48;23.37;;;15.03;;
6414;SDS011;3240;48.790;9.210;2023-03-01T13:47:17;23.37;;;14.53;;
6414;SDS011;3240;48.790;9.210;2023-03-01T13:49:48;23.15;;;16.40;;
6414;SDS011;3240;48.790;9.210;2023-03-01T13:52:26;26.33;;;15.40;;
6414;SDS011;3240;48.790;9.210;2023-03-01T13:54:49;25.83;;;16.03;;
6414;SDS011;3240;48.790;9.210;2023-03-01T13:57:20;24.67;;;16.60;;
6414;SDS011;3240;48.790;9.210;2023-03-01T13:59:47;21.33;;;15.00;;
6414;SDS011;3240;48.790;9.210;2023-03-01T14:02:15;24.80;;;16.20;;
6414;SDS011;3240;48.790;9.210;2023-03-01T14:04:43;27.50;;;17.40;;
6414;SDS011;3240;48.790;9.210;2023-03-01T14:07:12;24.27;;;16.93;;
6414;SDS011;3240;48.790;9.210;2023-03-01T14:09:40;27.50;;;17.10;;
6414;SDS011;3240;48.790;9.210;2023-03-01T14:12:18;25.07;;;17.00;;
6414;SDS011;3240;48.790;9.210;2023-03-01T14:14:48;28.20;;;16.70;;
6414;SDS011;3240;48.790;9.210;2023-03-01T14:17:22;26.30;;;16.70;;
6414;SDS011;3240;48.790;9.210;2023-03-01T14:19:47;24.17;;;16.83;;
6414;SDS011;3240;48.790;9.210;2023-03-01T14:22:19;30.47;;;16.40;;
6414;SDS011;3240;48.790;9.210;2023-03-01T14:24:49;23.60;;;14.63;;
6414;SDS011;3240;48.790;9.210;2023-03-01T14:27:16;28.30;;;17.10;;
6414;SDS011;3240;48.790;9.210;2023-03-01T14:29:53;27.13;;;17.00;;
6414;SDS011;3240;48.790;9.210;2023-03-01T14:32:17;26.57;;;15.53;;
6414;SDS011;3240;48.790;9.210;2023-03-01T14:34:44;25.53;;;15.90;;
6414;SDS011;3240;48.790;9.210;2023-03-01T14:37:17;25.90;;;15.50;;
6414;SDS011;3240;48.790;9.210;2023-03-01T14:39:39;25.80;;;17.00;;
6414;SDS011;3240;48.790;9.210;2023-03-01T14:42:07;23.77;;;16.10;;
6414;SDS011;3240;48.790;9.210;2023-03-01T14:44:35;24.13;;;15.57;;
6414;SDS011;3240;48.790;9.210;2023-03-01T14:47:03;30.07;;;16.27;;
6414;SDS011;3240;48.790;9.210;2023-03-01T14:49:31;23.83;;;15.60;;
6414;SDS011;3240;48.790;9.210;2023-03-01T14:52:00;29.13;;;14.80;;
6414;SDS011;3240;48.790;9.210;2023-03-01T14:54:29;23.43;;;14.97;;
6414;SDS011;3240;48.790;9.210;2023-03-01T14:56:58;28.40;;;17.07;;
6414;SDS011;3240;48.790;9.210;2023-03-01T14:59:25;32.27;;;18.53;;
6414;SDS011;3240;48.790;9.210;2023-03-01T15:01:55;24.80;;;16.13;;
6414;SDS011;3240;48.790;9.210;2023-03-01T15:04:22;30.50;;;18.30;;
6414;SDS011;3240;48.790;9.210;2023-03-01T15:06:50;26.70;;;16.60;;
6414;SDS011;3240;48.790;9.210;2023-03-01T15:09:18;31.77;;;17.70;;
6414;SDS011;3240;48.790;9.210;2023-03-01T15:11:46;27.85;;;16.50;;
6414;SDS011;3240;48.790;9.210;2023-03-01T15:16:48;30.57;;;16.60;;
6414;SDS011;3240;48.790;9.210;2023-03-01T15:19:16;24.90;;;15.67;;
6414;SDS011;3240;48.790;9.210;2023-03-01T15:21:44;28.80;;;16.43;;
6414;SDS011;3240;48.790;9.210;2023-03-01T15:24:20;26.10;;;16.23;;
6414;SDS011;3240;48.790;9.210;2023-03-01T15:26:53;30.23;;;15.77;;